Bordeaux-Mérignac Airport

LFBD · Gironda, Nouvelle-Aquitaine, França

História da METAR LFBD · Bordeaux-Mérignac Airport

Abaixo você vê METARs dos últimos dias. Selecione um ano para navegar pelos METARs mais antigos, a partir do ano 2007.

24 de julho de 2024

Hora Código Clima Temp. Visibilidade Tecto Vento METAR/SPECI
23:00
V
19 °C 10 km+ - 310° 310° 5 kt METAR LFBD 242100Z AUTO 31005KT 290V350 CAVOK 19/15 Q1019 NOSIG
22:30
V
20 °C 10 km+ - 310° 310° 5 kt METAR LFBD 242030Z AUTO 31005KT 280V340 CAVOK 20/15 Q1019 NOSIG
22:00
V
20 °C 10 km+ - 310° 310° 6 kt METAR LFBD 242000Z AUTO 31006KT CAVOK 20/15 Q1019 NOSIG
21:30
V
21 °C 10 km+ - 310° 310° 8 kt METAR LFBD 241930Z AUTO 31008KT 290V360 CAVOK 21/15 Q1019 NOSIG
21:00
V
23 °C 10 km+ - 310° 310° 8 kt METAR LFBD 241900Z AUTO 31008KT CAVOK 23/16 Q1019 NOSIG
20:30
V
24 °C 10 km+ - 300° 300° 10 kt METAR LFBD 241830Z AUTO 30010KT CAVOK 24/16 Q1019 NOSIG
20:00
V
25 °C 10 km+ - 300° 300° 10 kt METAR LFBD 241800Z AUTO 30010KT CAVOK 25/16 Q1018 NOSIG
19:30
V
26 °C 10 km+ - 300° 300° 10 kt METAR LFBD 241730Z AUTO 30010KT CAVOK 26/16 Q1018 NOSIG
19:00
V
27 °C 10 km+ - 300° 300° 9 kt METAR LFBD 241700Z AUTO 30009KT CAVOK 27/16 Q1018 NOSIG
18:30
V
27 °C 10 km+ - 300° 300° 7 kt METAR LFBD 241630Z AUTO 30007KT 260V340 CAVOK 27/16 Q1019 NOSIG
18:00
V
28 °C 10 km+ - 300° 300° 7 kt METAR LFBD 241600Z AUTO 30007KT 270V340 CAVOK 28/16 Q1019 NOSIG
17:30
V
28 °C 10 km+ - 280° 280° 8 kt METAR LFBD 241530Z AUTO 28008KT 240V320 CAVOK 28/17 Q1019 NOSIG
17:00
V
28 °C 10 km+ - 300° 300° 7 kt METAR LFBD 241500Z AUTO 30007KT 210V020 9999 FEW039 28/17 Q1019 NOSIG
16:30
V
28 °C 10 km+ - 280° 280° 5 kt METAR LFBD 241430Z AUTO 28005KT 230V310 9999 ////// 28/17 Q1019
15:30
V
26 °C 10 km+ 3.300 ft 300° 300° 4 kt METAR LFBD 241330Z AUTO 30004KT 250V360 9999 BKN033 26/18 Q1020 NOSIG
15:00
M
26 °C 10 km+ 3.000 ft 280° 280° 5 kt METAR LFBD 241300Z AUTO 28005KT 180V330 9999 BKN030 26/18 Q1020 NOSIG
14:30
V
25 °C 10 km+ - 270° 270° 4 kt METAR LFBD 241230Z AUTO 27004KT 180V320 9999 SCT023 SCT028 25/18 Q1021 NOSIG
14:00
M
24 °C 10 km+ 1.800 ft Var Var 3 kt METAR LFBD 241200Z AUTO VRB03KT 9999 BKN018 24/17 Q1021 NOSIG
13:30
M
23 °C 10 km+ 1.700 ft 310° 310° 5 kt METAR LFBD 241130Z AUTO 31005KT 230V340 9999 OVC017 23/18 Q1021 NOSIG
13:00
M
22 °C 10 km+ 1.500 ft 340° 340° 4 kt METAR LFBD 241100Z AUTO 34004KT 270V010 9999 OVC015 22/18 Q1022 NOSIG
12:30
M
22 °C 10 km+ 1.200 ft 310° 310° 4 kt METAR LFBD 241030Z AUTO 31004KT 240V360 9999 OVC012 22/18 Q1022 BECMG NSC
12:00
M
21 °C 10 km+ 1.100 ft 290° 290° 3 kt METAR LFBD 241000Z AUTO 29003KT 210V350 9999 OVC011 21/17 Q1022 BECMG NSC
11:30
M
20 °C 10 km+ 1.000 ft 320° 320° 5 kt METAR LFBD 240930Z AUTO 32005KT 290V020 9999 OVC010 20/17 Q1022 BECMG NSC
11:00
I
20 °C 10 km+ 800 ft 320° 320° 5 kt METAR LFBD 240900Z AUTO 32005KT 280V040 9999 OVC008 20/17 Q1022 BECMG NSC
10:30
I
19 °C 10 km+ 600 ft Var Var 4 kt METAR LFBD 240830Z AUTO VRB04KT 9999 OVC006 19/17 Q1022 BECMG NSC
10:00
I
19 °C 10 km+ 600 ft 320° 320° 3 kt METAR LFBD 240800Z AUTO 32003KT 270V050 9999 OVC006 19/17 Q1022 BECMG NSC
09:30
I
18 °C 10 km+ 500 ft 340° 340° 3 kt METAR LFBD 240730Z AUTO 34003KT 290V030 9999 OVC005 18/17 Q1022 BECMG NSC
09:00
I
18 °C 10 km+ 500 ft 320° 320° 3 kt METAR LFBD 240700Z AUTO 32003KT 280V360 9999 OVC005 18/17 Q1022 BECMG NSC
08:30
I
18 °C 10 km+ 600 ft Var Var 3 kt METAR LFBD 240630Z AUTO VRB03KT 9999 OVC006 18/16 Q1022 BECMG NSC
08:00
I
18 °C 10 km+ 500 ft 030° 030° 5 kt METAR LFBD 240600Z AUTO 03005KT 9999 OVC005 18/17 Q1022 BECMG NSC
07:30
I
18 °C 10 km+ 500 ft 040° 040° 6 kt METAR LFBD 240530Z AUTO 04006KT 360V060 9999 OVC005 18/17 Q1022 BECMG NSC
07:00
L
18 °C 10 km+ 400 ft 040° 040° 8 kt METAR LFBD 240500Z AUTO 04008KT 9999 OVC004 18/17 Q1022 TEMPO 4000 BR BECMG NSC
06:30
L
18 °C 10 km+ 400 ft 360° 360° 6 kt METAR LFBD 240430Z AUTO 36006KT 9999 OVC004 18/17 Q1022 TEMPO 4000 BR BECMG NSC
06:00
L
18 °C 10 km+ 400 ft 040° 040° 8 kt METAR LFBD 240400Z AUTO 04008KT 9999 OVC004 18/17 Q1022 TEMPO 4000 BR
05:30
L
18 °C 10 km+ 400 ft 360° 360° 6 kt METAR LFBD 240330Z AUTO 36006KT 9999 OVC004 18/17 Q1022 TEMPO 4000 BR
05:00
L
18 °C 10 km+ 400 ft 360° 360° 8 kt METAR LFBD 240300Z AUTO 36008KT 9999 OVC004 18/17 Q1022 TEMPO 4000 BR
04:30
L
18 °C 10 km+ 400 ft 350° 350° 6 kt METAR LFBD 240230Z AUTO 35006KT 9999 OVC004 18/17 Q1022 TEMPO 4000 BR
04:00
L
18 °C 4,4 km 400 ft 340° 340° 5 kt METAR LFBD 240200Z AUTO 34005KT 9999 4400 OVC004 18/17 Q1022 TEMPO 4000 BR
03:30
L
18 °C 7 km 300 ft 360° 360° 7 kt METAR LFBD 240130Z AUTO 36007KT 7000 OVC003 18/17 Q1022 TEMPO 4000 BR
03:00
L
18 °C 10 km+ 400 ft 360° 360° 6 kt METAR LFBD 240100Z AUTO 36006KT 9999 OVC004 18/17 Q1023 TEMPO 4000 BR
02:30
L
18 °C 10 km+ 400 ft 360° 360° 8 kt METAR LFBD 240030Z AUTO 36008KT 9999 BKN004 18/17 Q1023 TEMPO 4000 BR NSC
02:00
V
18 °C 10 km+ - 360° 360° 4 kt METAR LFBD 240000Z AUTO 36004KT 340V040 CAVOK 18/17 Q1023 NOSIG
01:30
V
19 °C 10 km+ - 360° 360° 5 kt METAR LFBD 232330Z AUTO 36005KT CAVOK 19/16 Q1023 NOSIG
01:00
V
19 °C 10 km+ - 340° 340° 3 kt METAR LFBD 232300Z AUTO 34003KT CAVOK 19/16 Q1023 NOSIG
00:30
V
19 °C 10 km+ - Var Var 3 kt METAR LFBD 232230Z AUTO VRB03KT CAVOK 19/16 Q1023 NOSIG
00:00
V
20 °C 10 km+ - 350° 350° 6 kt METAR LFBD 232200Z AUTO 35006KT 330V070 CAVOK 20/16 Q1023 NOSIG

23 de julho de 2024

Hora Código Clima Temp. Visibilidade Tecto Vento METAR/SPECI
23:30
V
21 °C 10 km+ - 330° 330° 5 kt METAR LFBD 232130Z AUTO 33005KT CAVOK 21/17 Q1023 NOSIG
23:00
V
21 °C 10 km+ - 330° 330° 7 kt METAR LFBD 232100Z AUTO 33007KT 310V020 CAVOK 21/18 Q1023 NOSIG
22:30
V
22 °C 10 km+ - 330° 330° 7 kt METAR LFBD 232030Z AUTO 33007KT 320V030 CAVOK 22/18 Q1023 NOSIG
22:00
V
23 °C 10 km+ - 340° 340° 5 kt METAR LFBD 232000Z AUTO 34005KT CAVOK 23/17 Q1023 NOSIG
21:30
V
24 °C 10 km+ - 360° 360° 9 kt METAR LFBD 231930Z AUTO 36009KT CAVOK 24/18 Q1023 NOSIG
21:00
V
25 °C 10 km+ - 360° 360° 11 kt METAR LFBD 231900Z AUTO 36011KT CAVOK 25/18 Q1022 NOSIG
20:30
V
26 °C 10 km+ - 360° 360° 11 kt METAR LFBD 231830Z AUTO 36011KT CAVOK 26/18 Q1022 NOSIG
20:00
V
27 °C 10 km+ - 010° 010° 9 kt METAR LFBD 231800Z AUTO 01009KT CAVOK 27/19 Q1022 NOSIG
19:30
V
27 °C 10 km+ - 020° 020° 10 kt METAR LFBD 231730Z AUTO 02010KT CAVOK 27/19 Q1022 NOSIG
19:00
V
27 °C 10 km+ - 010° 010° 12 kt METAR LFBD 231700Z AUTO 01012KT 330V040 9999 SCT039 27/19 Q1022 NOSIG
18:30
V
28 °C 10 km+ - 010° 010° 9 kt METAR LFBD 231630Z AUTO 01009KT 300V040 9999 FEW045 28/19 Q1022 NOSIG
18:00
V
29 °C 10 km+ - 360° 360° 8 kt METAR LFBD 231600Z AUTO 36008KT 9999 FEW036 29/19 Q1022 NOSIG
17:30
V
28 °C 10 km+ - 360° 360° 9 kt METAR LFBD 231530Z AUTO 36009KT 330V080 9999 SCT037 28/19 Q1022 NOSIG
17:00
V
28 °C 10 km+ 4.300 ft 020° 020° 10 kt METAR LFBD 231500Z AUTO 02010KT 340V050 9999 SCT036 BKN043 BKN049 28/19 Q1022 NOSIG
16:30
V
29 °C 10 km+ 4.300 ft 040° 040° 7 kt METAR LFBD 231430Z AUTO 04007KT 340V110 9999 BKN043 29/18 Q1022 NOSIG
16:00
V
29 °C 10 km+ 4.100 ft 330° 330° 6 kt METAR LFBD 231400Z AUTO 33006KT 280V050 9999 BKN041 29/18 Q1022 NOSIG
15:30
V
29 °C 10 km+ - 330° 330° 5 kt METAR LFBD 231330Z AUTO 33005KT 250V030 9999 FEW041 29/18 Q1022 NOSIG
15:00
V
28 °C 10 km+ - 280° 280° 4 kt METAR LFBD 231300Z AUTO 28004KT 230V020 CAVOK 28/17 Q1023 NOSIG
14:30
V
28 °C 10 km+ - Var Var 4 kt METAR LFBD 231230Z AUTO VRB04KT CAVOK 28/17 Q1023 NOSIG
14:00
V
28 °C 10 km+ - 310° 310° 5 kt METAR LFBD 231200Z AUTO 31005KT 270V360 9999 FEW035 28/18 Q1023 NOSIG
13:30
V
27 °C 10 km+ - Var Var 4 kt METAR LFBD 231130Z AUTO VRB04KT 9999 FEW033 27/17 Q1023 NOSIG
13:00
V
26 °C 10 km+ - Var Var 3 kt METAR LFBD 231100Z AUTO VRB03KT CAVOK 26/17 Q1023 NOSIG
12:30
V
26 °C 10 km+ - Var Var 4 kt METAR LFBD 231030Z AUTO VRB04KT CAVOK 26/17 Q1023 NOSIG
12:00
V
25 °C 10 km+ - Var Var 4 kt METAR LFBD 231000Z AUTO VRB04KT CAVOK 25/17 Q1023 NOSIG
11:30
V
24 °C 10 km+ - Var Var 3 kt METAR LFBD 230930Z AUTO VRB03KT CAVOK 24/16 Q1023 NOSIG
11:00
V
24 °C 10 km+ - Var Var 3 kt METAR LFBD 230900Z AUTO VRB03KT CAVOK 24/16 Q1023 NOSIG
10:30
V
23 °C 10 km+ - Var Var 3 kt METAR LFBD 230830Z AUTO VRB03KT CAVOK 23/16 Q1023 NOSIG
10:00
V
22 °C 10 km+ - Var Var 2 kt METAR LFBD 230800Z AUTO VRB02KT CAVOK 22/16 Q1023 NOSIG
09:30
V
22 °C 10 km+ - Var Var 3 kt METAR LFBD 230730Z AUTO VRB03KT CAVOK 22/17 Q1023 NOSIG
09:00
V
21 °C 10 km+ - Var Var 2 kt METAR LFBD 230700Z AUTO VRB02KT CAVOK 21/17 Q1023 NOSIG
08:30
V
20 °C 10 km+ - Var Var 2 kt METAR LFBD 230630Z AUTO VRB02KT CAVOK 20/16 Q1023 NOSIG
08:00
V
18 °C 10 km+ - 360° 360° 0 kt METAR LFBD 230600Z AUTO 00000KT CAVOK 18/16 Q1023 NOSIG
07:30
V
16 °C 10 km+ - Var Var 1 kt METAR LFBD 230530Z AUTO VRB01KT CAVOK 16/15 Q1023 NOSIG
07:00
V
15 °C 10 km+ - 140° 140° 2 kt METAR LFBD 230500Z AUTO 14002KT CAVOK 15/14 Q1023 TEMPO 4000 BR
06:30
L
15 °C 1,1 km - 360° 360° 0 kt METAR LFBD 230430Z AUTO 00000KT 9999 1100 R23/P2300 R05/1000U R29/P2300 NSC 15/14 Q1023 TEMPO 4000 BR
06:00
I
15 °C 2,5 km - 360° 360° 0 kt METAR LFBD 230400Z AUTO 00000KT 9999 2500 NSC 15/14 Q1023 TEMPO 4000 BR
05:30
L
16 °C 900 m - Var Var 1 kt METAR LFBD 230330Z AUTO VRB01KT 9999 0900 R23/P2300 R05/1100U R29/P2300 BCFG NSC 16/14 Q1023 TEMPO 4000 BR
05:00
L
16 °C 750 m - 320° 320° 2 kt METAR LFBD 230300Z AUTO 32002KT 9999 0750 R23/P2300 R05/0700D R29/P2300 BCFG NSC 16/14 Q1023 TEMPO 4000 BR
04:30
I
16 °C 1,8 km - 330° 330° 1 kt METAR LFBD 230230Z AUTO 33001KT 9999 1800 NSC 16/14 Q1023 TEMPO 4000 BR
04:00
I
17 °C 2,8 km - Var Var 2 kt METAR LFBD 230200Z AUTO VRB02KT 9999 2800 NSC 17/15 Q1023 TEMPO 4000 BR
03:30
I
17 °C 1,9 km - Var Var 2 kt METAR LFBD 230130Z AUTO VRB02KT 9999 1900 NSC 17/15 Q1023 TEMPO 4000 BR
03:00
V
17 °C 10 km+ - 040° 040° 3 kt METAR LFBD 230100Z AUTO 04003KT CAVOK 17/15 Q1023 TEMPO 4000 BR
02:30
V
17 °C 10 km+ - 360° 360° 0 kt METAR LFBD 230030Z AUTO 00000KT CAVOK 17/15 Q1023 TEMPO 4000 BR
02:00
V
18 °C 10 km+ - 340° 340° 3 kt METAR LFBD 230000Z AUTO 34003KT CAVOK 18/15 Q1024 NOSIG
01:30
V
18 °C 10 km+ - Var Var 2 kt METAR LFBD 222330Z AUTO VRB02KT CAVOK 18/15 Q1024 NOSIG
01:00
V
18 °C 10 km+ - 330° 330° 2 kt METAR LFBD 222300Z AUTO 33002KT CAVOK 18/15 Q1024 NOSIG
00:30
V
18 °C 10 km+ - 010° 010° 3 kt METAR LFBD 222230Z AUTO 01003KT CAVOK 18/15 Q1024 NOSIG
00:00
V
19 °C 10 km+ - 360° 360° 3 kt METAR LFBD 222200Z AUTO 36003KT CAVOK 19/15 Q1024 NOSIG

22 de julho de 2024

Hora Código Clima Temp. Visibilidade Tecto Vento METAR/SPECI
23:30
V
19 °C 10 km+ - 340° 340° 3 kt METAR LFBD 222130Z AUTO 34003KT 310V020 CAVOK 19/15 Q1024 NOSIG
23:00
V
19 °C 10 km+ - 320° 320° 4 kt METAR LFBD 222100Z AUTO 32004KT CAVOK 19/15 Q1024 NOSIG
22:30
V
20 °C 10 km+ - 330° 330° 5 kt METAR LFBD 222030Z AUTO 33005KT CAVOK 20/15 Q1024 NOSIG
22:00
V
21 °C 10 km+ - 340° 340° 2 kt METAR LFBD 222000Z AUTO 34002KT CAVOK 21/15 Q1023 NOSIG
21:30
V
21 °C 10 km+ - 340° 340° 4 kt METAR LFBD 221930Z AUTO 34004KT 330V070 CAVOK 21/15 Q1023 NOSIG
21:00
V
22 °C 10 km+ - 350° 350° 4 kt METAR LFBD 221900Z AUTO 35004KT CAVOK 22/15 Q1023 NOSIG
20:30
V
22 °C 10 km+ - 010° 010° 4 kt METAR LFBD 221830Z AUTO 01004KT 330V030 CAVOK 22/15 Q1023 NOSIG
20:00
V
22 °C 10 km+ - 350° 350° 5 kt METAR LFBD 221800Z AUTO 35005KT 320V040 9999 FEW030 22/15 Q1023 NOSIG
19:30
M
23 °C 10 km+ 3.000 ft 020° 020° 4 kt METAR LFBD 221730Z AUTO 02004KT 320V090 9999 OVC030 23/15 Q1023 NOSIG
19:00
M
23 °C 10 km+ 3.000 ft 340° 340° 7 kt METAR LFBD 221700Z AUTO 34007KT 9999 OVC030 23/15 Q1023 NOSIG
18:30
V
23 °C 10 km+ 3.200 ft 340° 340° 7 kt METAR LFBD 221630Z AUTO 34007KT 300V010 9999 OVC032 23/15 Q1023 NOSIG
18:00
V
23 °C 10 km+ 3.300 ft 330° 330° 7 kt METAR LFBD 221600Z AUTO 33007KT 230V350 9999 OVC033 23/15 Q1023 NOSIG
17:30
V
23 °C 10 km+ 3.400 ft 330° 330° 7 kt METAR LFBD 221530Z AUTO 33007KT 290V010 9999 OVC034 23/15 Q1023 NOSIG
17:00
V
24 °C 10 km+ 3.600 ft 320° 320° 6 kt METAR LFBD 221500Z AUTO 32006KT 290V360 9999 OVC036 24/15 Q1023 NOSIG
16:30
V
23 °C 10 km+ 3.400 ft 320° 320° 7 kt METAR LFBD 221430Z AUTO 32007KT 280V340 9999 OVC034 23/15 Q1023 NOSIG
16:00
I
23 °C 2,6 km 3.400 ft 270° 270° 7 kt METAR LFBD 221400Z AUTO 27007KT 210V340 9999 2600 OVC034 23/15 Q1023 NOSIG
15:30
V
23 °C 10 km+ 3.400 ft Var Var 3 kt METAR LFBD 221330Z AUTO VRB03KT 9999 OVC034 23/15 Q1023 NOSIG
15:00
V
23 °C 10 km+ 3.300 ft 280° 280° 4 kt METAR LFBD 221300Z AUTO 28004KT 240V310 9999 OVC033 23/14 Q1023 NOSIG
14:30
V
23 °C 10 km+ 3.600 ft 280° 280° 4 kt METAR LFBD 221230Z AUTO 28004KT 210V350 9999 BKN036 OVC060 23/14 Q1023 NOSIG
14:00
V
23 °C 10 km+ 3.800 ft 250° 250° 5 kt METAR LFBD 221200Z AUTO 25005KT 200V280 9999 FEW032 OVC038 23/14 Q1023 NOSIG
13:30
V
22 °C 10 km+ 3.400 ft 290° 290° 7 kt METAR LFBD 221130Z AUTO 29007KT 270V350 9999 OVC034 22/14 Q1023 NOSIG
13:00
V
22 °C 10 km+ 3.700 ft 300° 300° 8 kt METAR LFBD 221100Z AUTO 30008KT 230V350 9999 OVC037 22/13 Q1023 NOSIG
12:30
V
22 °C 10 km+ 3.500 ft 260° 260° 7 kt METAR LFBD 221030Z AUTO 26007KT 9999 OVC035 22/13 Q1023 NOSIG
12:00
V
22 °C 10 km+ 3.700 ft 240° 240° 6 kt METAR LFBD 221000Z AUTO 24006KT 210V280 9999 BKN037 OVC056 22/13 Q1023 NOSIG
11:30
V
21 °C 10 km+ 3.500 ft 270° 270° 5 kt METAR LFBD 220930Z AUTO 27005KT 210V020 9999 BKN035 21/13 Q1023 NOSIG
11:00
V
21 °C 10 km+ 3.400 ft 290° 290° 7 kt METAR LFBD 220900Z AUTO 29007KT 260V320 9999 OVC034 21/12 Q1023 NOSIG
10:30
V
22 °C 10 km+ 5.400 ft Var Var 3 kt METAR LFBD 220830Z AUTO VRB03KT 9999 SCT035 BKN054 BKN064 22/13 Q1023 NOSIG
Relatar uma mudança